Pagrindinis puslapis
METAR-TAF:

METAR-TAF

Oro uostai :

Los Anchelesas, Čilė

platuma: 37-24-07S, ilguma: 072-25-32W, Aukštis: 114 m

Dabartinis oras

Ataskaita buvo paskelbta 33 minutes, ne 17:00 UTC
Vėjas 18 kt iš Šiaurės
Temperatūra 10°C
Drėgmė 100%
Slėgis 1017 hPa
Matomumas: 2000 m
Su prošvaistėmis ne aukštis 800 ft
Apsiniaukę ne aukštis 1000 ft
lietus

METAR: SCGE 221700Z 01018KT 2000 RA BKN008 OVC010 10/10 Q1017

Laikas: 13:33 (17:33 UTC)


TAF: trūkstamas

Orai ataskaitas ir orų prognozės (METAR, TAF).

turimą stotys yra geltonos ir raudonos taškus žemėlapyje.

Perkelti pele per norėdami pamatyti stoties vardą.

Tada spustelėkite, norėdami matyti oro stebėjimo ir prognozės.

Norėdami pakeisti žemėlapį: spustelėkite ant žalios mygtukų su juodo kryžiaus žemyn,; žalią mygtuką su brūkšneliu, jei norite nutolinti; arba žalių rodyklių gretimoms žemėlapius.


METAR-TAF: